sensor_id;sensor_type;location;lat;lon;timestamp;P1;durP1;ratioP1;P2;durP2;ratioP2
22219;SDS011;11279;48.364;10.904;2023-05-07T00:00:35;9.43;;;5.40;;
22219;SDS011;11279;48.364;10.904;2023-05-07T00:01:35;9.97;;;4.93;;
22219;SDS011;11279;48.364;10.904;2023-05-07T00:02:36;9.50;;;5.60;;
22219;SDS011;11279;48.364;10.904;2023-05-07T00:03:37;10.13;;;5.10;;
22219;SDS011;11279;48.364;10.904;2023-05-07T00:04:37;10.33;;;4.90;;
22219;SDS011;11279;48.364;10.904;2023-05-07T00:05:39;10.47;;;5.20;;
22219;SDS011;11279;48.364;10.904;2023-05-07T00:06:39;11.82;;;5.70;;
22219;SDS011;11279;48.364;10.904;2023-05-07T00:07:40;11.70;;;5.53;;
22219;SDS011;11279;48.364;10.904;2023-05-07T00:08:40;8.63;;;5.07;;
22219;SDS011;11279;48.364;10.904;2023-05-07T00:09:41;10.73;;;6.00;;
22219;SDS011;11279;48.364;10.904;2023-05-07T00:10:41;9.27;;;5.20;;
22219;SDS011;11279;48.364;10.904;2023-05-07T00:11:42;14.03;;;5.97;;
22219;SDS011;11279;48.364;10.904;2023-05-07T00:12:42;9.63;;;5.57;;
22219;SDS011;11279;48.364;10.904;2023-05-07T00:13:43;9.57;;;5.10;;
22219;SDS011;11279;48.364;10.904;2023-05-07T00:14:43;7.93;;;4.90;;
22219;SDS011;11279;48.364;10.904;2023-05-07T00:15:43;11.07;;;5.40;;
22219;SDS011;11279;48.364;10.904;2023-05-07T00:16:44;11.53;;;5.57;;
22219;SDS011;11279;48.364;10.904;2023-05-07T00:17:44;8.87;;;5.00;;
22219;SDS011;11279;48.364;10.904;2023-05-07T00:18:45;11.83;;;5.37;;
22219;SDS011;11279;48.364;10.904;2023-05-07T00:19:45;9.20;;;4.97;;
22219;SDS011;11279;48.364;10.904;2023-05-07T00:20:46;9.87;;;5.63;;
22219;SDS011;11279;48.364;10.904;2023-05-07T00:21:47;8.77;;;5.80;;
22219;SDS011;11279;48.364;10.904;2023-05-07T00:22:48;7.13;;;4.80;;
22219;SDS011;11279;48.364;10.904;2023-05-07T00:23:48;8.13;;;4.90;;
22219;SDS011;11279;48.364;10.904;2023-05-07T00:24:48;10.00;;;4.90;;
22219;SDS011;11279;48.364;10.904;2023-05-07T00:25:49;7.60;;;4.73;;
22219;SDS011;11279;48.364;10.904;2023-05-07T00:26:49;7.43;;;5.03;;
22219;SDS011;11279;48.364;10.904;2023-05-07T00:27:50;12.57;;;5.10;;
22219;SDS011;11279;48.364;10.904;2023-05-07T00:28:50;8.50;;;5.13;;
22219;SDS011;11279;48.364;10.904;2023-05-07T00:29:51;9.00;;;5.00;;
22219;SDS011;11279;48.364;10.904;2023-05-07T00:30:51;8.87;;;5.27;;
22219;SDS011;11279;48.364;10.904;2023-05-07T00:31:52;10.07;;;5.43;;
22219;SDS011;11279;48.364;10.904;2023-05-07T00:32:54;9.45;;;5.65;;
22219;SDS011;11279;48.364;10.904;2023-05-07T00:33:55;10.53;;;4.90;;
22219;SDS011;11279;48.364;10.904;2023-05-07T00:34:55;10.60;;;5.00;;
22219;SDS011;11279;48.364;10.904;2023-05-07T00:35:56;7.90;;;5.20;;
22219;SDS011;11279;48.364;10.904;2023-05-07T00:36:56;9.30;;;5.57;;
22219;SDS011;11279;48.364;10.904;2023-05-07T00:37:57;10.43;;;5.10;;
22219;SDS011;11279;48.364;10.904;2023-05-07T00:38:58;8.90;;;5.07;;
22219;SDS011;11279;48.364;10.904;2023-05-07T00:40:00;9.55;;;5.68;;
22219;SDS011;11279;48.364;10.904;2023-05-07T00:41:00;9.97;;;5.80;;
22219;SDS011;11279;48.364;10.904;2023-05-07T00:42:02;14.75;;;6.00;;
22219;SDS011;11279;48.364;10.904;2023-05-07T00:43:02;11.47;;;6.03;;
22219;SDS011;11279;48.364;10.904;2023-05-07T00:44:03;9.87;;;5.33;;
22219;SDS011;11279;48.364;10.904;2023-05-07T00:45:04;9.73;;;5.43;;
22219;SDS011;11279;48.364;10.904;2023-05-07T00:46:05;8.60;;;5.50;;
22219;SDS011;11279;48.364;10.904;2023-05-07T00:47:06;9.90;;;5.50;;
22219;SDS011;11279;48.364;10.904;2023-05-07T00:48:06;14.60;;;6.00;;
22219;SDS011;11279;48.364;10.904;2023-05-07T00:49:07;10.10;;;6.10;;
22219;SDS011;11279;48.364;10.904;2023-05-07T00:50:07;12.57;;;5.90;;
22219;SDS011;11279;48.364;10.904;2023-05-07T00:51:10;8.95;;;6.00;;
22219;SDS011;11279;48.364;10.904;2023-05-07T00:52:13;10.30;;;5.55;;
22219;SDS011;11279;48.364;10.904;2023-05-07T00:53:14;11.25;;;6.05;;
22219;SDS011;11279;48.364;10.904;2023-05-07T00:54:15;11.53;;;5.73;;
22219;SDS011;11279;48.364;10.904;2023-05-07T00:55:15;11.70;;;5.93;;
22219;SDS011;11279;48.364;10.904;2023-05-07T00:56:16;10.03;;;6.13;;
22219;SDS011;11279;48.364;10.904;2023-05-07T00:57:16;11.53;;;5.80;;
22219;SDS011;11279;48.364;10.904;2023-05-07T00:58:17;12.70;;;6.10;;
22219;SDS011;11279;48.364;10.904;2023-05-07T00:59:17;12.80;;;6.40;;
22219;SDS011;11279;48.364;10.904;2023-05-07T01:00:18;11.73;;;6.37;;
22219;SDS011;11279;48.364;10.904;2023-05-07T01:01:19;11.93;;;6.93;;
22219;SDS011;11279;48.364;10.904;2023-05-07T01:02:20;12.43;;;6.80;;
22219;SDS011;11279;48.364;10.904;2023-05-07T01:03:20;9.73;;;6.60;;
22219;SDS011;11279;48.364;10.904;2023-05-07T01:04:21;12.63;;;7.60;;
22219;SDS011;11279;48.364;10.904;2023-05-07T01:05:22;13.43;;;7.30;;
22219;SDS011;11279;48.364;10.904;2023-05-07T01:06:23;12.15;;;7.35;;
22219;SDS011;11279;48.364;10.904;2023-05-07T01:07:24;11.25;;;6.68;;
22219;SDS011;11279;48.364;10.904;2023-05-07T01:08:25;10.40;;;7.00;;
22219;SDS011;11279;48.364;10.904;2023-05-07T01:09:28;11.07;;;6.90;;
22219;SDS011;11279;48.364;10.904;2023-05-07T01:10:28;11.50;;;6.80;;
22219;SDS011;11279;48.364;10.904;2023-05-07T01:11:30;13.75;;;7.50;;
22219;SDS011;11279;48.364;10.904;2023-05-07T01:12:31;14.60;;;7.17;;
22219;SDS011;11279;48.364;10.904;2023-05-07T01:13:32;12.63;;;7.77;;
22219;SDS011;11279;48.364;10.904;2023-05-07T01:14:33;11.40;;;6.97;;
22219;SDS011;11279;48.364;10.904;2023-05-07T01:15:34;12.37;;;7.90;;
22219;SDS011;11279;48.364;10.904;2023-05-07T01:16:34;12.20;;;7.77;;
22219;SDS011;11279;48.364;10.904;2023-05-07T01:17:35;11.43;;;7.33;;
22219;SDS011;11279;48.364;10.904;2023-05-07T01:18:36;12.07;;;7.80;;
22219;SDS011;11279;48.364;10.904;2023-05-07T01:19:36;13.57;;;7.57;;
22219;SDS011;11279;48.364;10.904;2023-05-07T01:20:37;13.93;;;7.67;;
22219;SDS011;11279;48.364;10.904;2023-05-07T01:21:37;12.37;;;7.30;;
22219;SDS011;11279;48.364;10.904;2023-05-07T01:22:38;15.50;;;7.87;;
22219;SDS011;11279;48.364;10.904;2023-05-07T01:23:39;11.40;;;7.15;;
22219;SDS011;11279;48.364;10.904;2023-05-07T01:24:40;11.77;;;7.67;;
22219;SDS011;11279;48.364;10.904;2023-05-07T01:25:41;11.80;;;7.37;;
22219;SDS011;11279;48.364;10.904;2023-05-07T01:26:42;10.27;;;7.03;;
22219;SDS011;11279;48.364;10.904;2023-05-07T01:27:43;14.82;;;7.97;;
22219;SDS011;11279;48.364;10.904;2023-05-07T01:28:43;9.57;;;6.90;;
22219;SDS011;11279;48.364;10.904;2023-05-07T01:29:44;12.32;;;7.38;;
22219;SDS011;11279;48.364;10.904;2023-05-07T01:30:49;14.23;;;7.23;;
22219;SDS011;11279;48.364;10.904;2023-05-07T01:31:52;11.38;;;7.22;;
22219;SDS011;11279;48.364;10.904;2023-05-07T01:33:15;12.93;;;7.67;;
22219;SDS011;11279;48.364;10.904;2023-05-07T01:34:14;12.25;;;7.18;;
22219;SDS011;11279;48.364;10.904;2023-05-07T01:35:18;10.45;;;7.03;;
22219;SDS011;11279;48.364;10.904;2023-05-07T01:36:20;10.32;;;7.10;;
22219;SDS011;11279;48.364;10.904;2023-05-07T01:37:22;13.15;;;7.00;;
22219;SDS011;11279;48.364;10.904;2023-05-07T01:38:23;11.57;;;7.57;;
22219;SDS011;11279;48.364;10.904;2023-05-07T01:39:24;11.37;;;7.20;;
22219;SDS011;11279;48.364;10.904;2023-05-07T01:40:25;13.10;;;7.68;;
22219;SDS011;11279;48.364;10.904;2023-05-07T01:41:26;11.43;;;6.70;;
22219;SDS011;11279;48.364;10.904;2023-05-07T01:42:26;11.80;;;6.83;;
22219;SDS011;11279;48.364;10.904;2023-05-07T01:43:27;12.60;;;6.93;;
22219;SDS011;11279;48.364;10.904;2023-05-07T01:44:28;13.10;;;6.93;;
22219;SDS011;11279;48.364;10.904;2023-05-07T01:45:30;12.47;;;7.43;;
22219;SDS011;11279;48.364;10.904;2023-05-07T01:46:31;12.88;;;6.10;;
22219;SDS011;11279;48.364;10.904;2023-05-07T01:47:32;9.75;;;6.28;;
22219;SDS011;11279;48.364;10.904;2023-05-07T01:48:32;11.13;;;6.80;;
22219;SDS011;11279;48.364;10.904;2023-05-07T01:49:33;13.43;;;6.97;;
22219;SDS011;11279;48.364;10.904;2023-05-07T01:50:34;12.23;;;6.45;;
22219;SDS011;11279;48.364;10.904;2023-05-07T01:51:35;13.07;;;6.47;;
22219;SDS011;11279;48.364;10.904;2023-05-07T01:52:37;10.00;;;6.60;;
22219;SDS011;11279;48.364;10.904;2023-05-07T01:53:39;13.68;;;6.85;;
22219;SDS011;11279;48.364;10.904;2023-05-07T01:54:40;10.07;;;6.90;;
22219;SDS011;11279;48.364;10.904;2023-05-07T01:55:41;11.63;;;6.97;;
22219;SDS011;11279;48.364;10.904;2023-05-07T01:56:41;9.63;;;6.67;;
22219;SDS011;11279;48.364;10.904;2023-05-07T01:57:42;11.37;;;6.90;;
22219;SDS011;11279;48.364;10.904;2023-05-07T01:58:43;10.10;;;6.90;;
22219;SDS011;11279;48.364;10.904;2023-05-07T01:59:44;10.75;;;6.90;;
22219;SDS011;11279;48.364;10.904;2023-05-07T02:00:45;10.60;;;6.63;;
22219;SDS011;11279;48.364;10.904;2023-05-07T02:01:46;9.60;;;6.40;;
22219;SDS011;11279;48.364;10.904;2023-05-07T02:02:47;9.70;;;6.63;;
22219;SDS011;11279;48.364;10.904;2023-05-07T02:03:47;11.43;;;7.10;;
22219;SDS011;11279;48.364;10.904;2023-05-07T02:04:48;11.47;;;6.70;;
22219;SDS011;11279;48.364;10.904;2023-05-07T02:05:48;10.50;;;6.80;;
22219;SDS011;11279;48.364;10.904;2023-05-07T02:06:49;11.70;;;6.67;;
22219;SDS011;11279;48.364;10.904;2023-05-07T02:07:49;15.07;;;6.67;;
22219;SDS011;11279;48.364;10.904;2023-05-07T02:08:50;13.67;;;7.13;;
22219;SDS011;11279;48.364;10.904;2023-05-07T02:09:50;10.63;;;6.67;;
22219;SDS011;11279;48.364;10.904;2023-05-07T02:10:51;11.03;;;7.00;;
22219;SDS011;11279;48.364;10.904;2023-05-07T02:11:51;12.13;;;6.87;;
22219;SDS011;11279;48.364;10.904;2023-05-07T02:12:52;13.67;;;6.60;;
22219;SDS011;11279;48.364;10.904;2023-05-07T02:13:52;10.37;;;6.80;;
22219;SDS011;11279;48.364;10.904;2023-05-07T02:14:53;11.20;;;6.50;;
22219;SDS011;11279;48.364;10.904;2023-05-07T02:15:53;11.23;;;6.53;;
22219;SDS011;11279;48.364;10.904;2023-05-07T02:16:53;10.53;;;6.50;;
22219;SDS011;11279;48.364;10.904;2023-05-07T02:17:58;12.43;;;6.73;;
22219;SDS011;11279;48.364;10.904;2023-05-07T02:19:08;10.50;;;7.28;;
22219;SDS011;11279;48.364;10.904;2023-05-07T02:20:08;12.57;;;6.30;;
22219;SDS011;11279;48.364;10.904;2023-05-07T02:21:13;12.05;;;7.30;;
22219;SDS011;11279;48.364;10.904;2023-05-07T02:22:13;10.83;;;7.07;;
22219;SDS011;11279;48.364;10.904;2023-05-07T02:23:14;11.90;;;6.77;;
22219;SDS011;11279;48.364;10.904;2023-05-07T02:24:14;14.70;;;6.77;;
22219;SDS011;11279;48.364;10.904;2023-05-07T02:25:15;11.33;;;6.37;;
22219;SDS011;11279;48.364;10.904;2023-05-07T02:26:15;11.57;;;6.50;;
22219;SDS011;11279;48.364;10.904;2023-05-07T02:27:16;11.60;;;7.20;;
22219;SDS011;11279;48.364;10.904;2023-05-07T02:28:16;10.53;;;6.63;;
22219;SDS011;11279;48.364;10.904;2023-05-07T02:29:16;11.97;;;6.70;;
22219;SDS011;11279;48.364;10.904;2023-05-07T02:30:17;10.03;;;6.53;;
22219;SDS011;11279;48.364;10.904;2023-05-07T02:31:17;10.10;;;6.17;;
22219;SDS011;11279;48.364;10.904;2023-05-07T02:32:18;11.70;;;6.87;;
22219;SDS011;11279;48.364;10.904;2023-05-07T02:33:18;10.67;;;6.20;;
22219;SDS011;11279;48.364;10.904;2023-05-07T02:34:19;11.67;;;7.20;;
22219;SDS011;11279;48.364;10.904;2023-05-07T02:35:20;10.13;;;6.83;;
22219;SDS011;11279;48.364;10.904;2023-05-07T02:36:20;11.77;;;6.30;;
22219;SDS011;11279;48.364;10.904;2023-05-07T02:37:21;12.27;;;6.53;;
22219;SDS011;11279;48.364;10.904;2023-05-07T02:38:21;9.77;;;6.77;;
22219;SDS011;11279;48.364;10.904;2023-05-07T02:39:22;10.88;;;6.30;;
22219;SDS011;11279;48.364;10.904;2023-05-07T02:40:22;9.67;;;6.60;;
22219;SDS011;11279;48.364;10.904;2023-05-07T02:41:23;9.63;;;6.30;;
22219;SDS011;11279;48.364;10.904;2023-05-07T02:42:23;12.10;;;6.47;;
22219;SDS011;11279;48.364;10.904;2023-05-07T02:43:24;15.40;;;6.73;;
22219;SDS011;11279;48.364;10.904;2023-05-07T02:44:25;10.57;;;6.30;;
22219;SDS011;11279;48.364;10.904;2023-05-07T02:45:25;9.53;;;6.13;;
22219;SDS011;11279;48.364;10.904;2023-05-07T02:46:25;12.87;;;6.43;;
22219;SDS011;11279;48.364;10.904;2023-05-07T02:47:26;12.80;;;6.97;;
22219;SDS011;11279;48.364;10.904;2023-05-07T02:48:29;11.52;;;6.43;;
22219;SDS011;11279;48.364;10.904;2023-05-07T02:49:30;11.87;;;6.50;;
22219;SDS011;11279;48.364;10.904;2023-05-07T02:50:30;11.30;;;6.07;;
22219;SDS011;11279;48.364;10.904;2023-05-07T02:51:32;12.25;;;6.07;;
22219;SDS011;11279;48.364;10.904;2023-05-07T02:52:32;9.90;;;5.73;;
22219;SDS011;11279;48.364;10.904;2023-05-07T02:53:33;10.43;;;6.33;;
22219;SDS011;11279;48.364;10.904;2023-05-07T02:54:33;11.70;;;6.03;;
22219;SDS011;11279;48.364;10.904;2023-05-07T02:55:34;11.07;;;6.07;;
22219;SDS011;11279;48.364;10.904;2023-05-07T02:56:34;11.53;;;6.77;;
22219;SDS011;11279;48.364;10.904;2023-05-07T02:57:34;11.40;;;7.17;;
22219;SDS011;11279;48.364;10.904;2023-05-07T02:58:35;10.57;;;6.53;;
22219;SDS011;11279;48.364;10.904;2023-05-07T02:59:35;10.90;;;6.70;;
22219;SDS011;11279;48.364;10.904;2023-05-07T03:00:36;11.50;;;6.77;;
22219;SDS011;11279;48.364;10.904;2023-05-07T03:01:37;12.73;;;6.70;;
22219;SDS011;11279;48.364;10.904;2023-05-07T03:02:37;10.93;;;7.07;;
22219;SDS011;11279;48.364;10.904;2023-05-07T03:03:37;11.83;;;6.77;;
22219;SDS011;11279;48.364;10.904;2023-05-07T03:04:39;13.23;;;6.63;;
22219;SDS011;11279;48.364;10.904;2023-05-07T03:05:39;11.50;;;6.47;;
22219;SDS011;11279;48.364;10.904;2023-05-07T03:06:40;10.70;;;6.27;;
22219;SDS011;11279;48.364;10.904;2023-05-07T03:07:40;12.43;;;7.23;;
22219;SDS011;11279;48.364;10.904;2023-05-07T03:08:45;10.13;;;6.18;;
22219;SDS011;11279;48.364;10.904;2023-05-07T03:09:45;10.73;;;6.40;;
22219;SDS011;11279;48.364;10.904;2023-05-07T03:10:46;12.20;;;6.67;;
22219;SDS011;11279;48.364;10.904;2023-05-07T03:11:46;12.10;;;6.60;;
22219;SDS011;11279;48.364;10.904;2023-05-07T03:12:47;11.47;;;6.47;;
22219;SDS011;11279;48.364;10.904;2023-05-07T03:13:47;13.40;;;7.17;;
22219;SDS011;11279;48.364;10.904;2023-05-07T03:14:49;10.77;;;7.03;;
22219;SDS011;11279;48.364;10.904;2023-05-07T03:15:50;9.63;;;6.67;;
22219;SDS011;11279;48.364;10.904;2023-05-07T03:16:50;10.03;;;6.17;;
22219;SDS011;11279;48.364;10.904;2023-05-07T03:17:51;13.77;;;7.30;;
22219;SDS011;11279;48.364;10.904;2023-05-07T03:18:51;9.80;;;7.00;;
22219;SDS011;11279;48.364;10.904;2023-05-07T03:19:52;10.97;;;7.07;;
22219;SDS011;11279;48.364;10.904;2023-05-07T03:20:52;12.60;;;7.33;;
22219;SDS011;11279;48.364;10.904;2023-05-07T03:21:52;11.03;;;6.90;;
22219;SDS011;11279;48.364;10.904;2023-05-07T03:22:53;11.03;;;7.33;;
22219;SDS011;11279;48.364;10.904;2023-05-07T03:23:53;12.13;;;7.67;;
22219;SDS011;11279;48.364;10.904;2023-05-07T03:24:54;10.80;;;7.40;;
22219;SDS011;11279;48.364;10.904;2023-05-07T03:25:54;15.53;;;7.23;;
22219;SDS011;11279;48.364;10.904;2023-05-07T03:26:55;11.00;;;6.73;;
22219;SDS011;11279;48.364;10.904;2023-05-07T03:27:55;10.00;;;6.37;;
22219;SDS011;11279;48.364;10.904;2023-05-07T03:28:56;10.20;;;6.05;;
22219;SDS011;11279;48.364;10.904;2023-05-07T03:29:56;10.83;;;6.20;;
22219;SDS011;11279;48.364;10.904;2023-05-07T03:30:57;8.80;;;6.17;;
22219;SDS011;11279;48.364;10.904;2023-05-07T03:31:57;8.53;;;5.60;;
22219;SDS011;11279;48.364;10.904;2023-05-07T03:32:58;7.87;;;5.37;;
22219;SDS011;11279;48.364;10.904;2023-05-07T03:33:58;10.10;;;5.40;;
22219;SDS011;11279;48.364;10.904;2023-05-07T03:34:59;7.53;;;5.03;;
22219;SDS011;11279;48.364;10.904;2023-05-07T03:35:59;10.60;;;6.23;;
22219;SDS011;11279;48.364;10.904;2023-05-07T03:37:00;10.17;;;6.07;;
22219;SDS011;11279;48.364;10.904;2023-05-07T03:38:00;9.13;;;5.67;;
22219;SDS011;11279;48.364;10.904;2023-05-07T03:39:01;11.73;;;5.90;;
22219;SDS011;11279;48.364;10.904;2023-05-07T03:40:01;11.70;;;5.80;;
22219;SDS011;11279;48.364;10.904;2023-05-07T03:41:02;9.03;;;5.97;;
22219;SDS011;11279;48.364;10.904;2023-05-07T03:42:02;9.93;;;5.87;;
22219;SDS011;11279;48.364;10.904;2023-05-07T03:43:03;8.80;;;5.67;;
22219;SDS011;11279;48.364;10.904;2023-05-07T03:44:04;7.87;;;5.30;;
22219;SDS011;11279;48.364;10.904;2023-05-07T03:45:04;8.77;;;5.53;;
22219;SDS011;11279;48.364;10.904;2023-05-07T03:46:05;9.17;;;5.83;;
22219;SDS011;11279;48.364;10.904;2023-05-07T03:47:06;10.23;;;5.53;;
22219;SDS011;11279;48.364;10.904;2023-05-07T03:48:06;9.77;;;6.00;;
22219;SDS011;11279;48.364;10.904;2023-05-07T03:49:06;12.70;;;6.50;;
22219;SDS011;11279;48.364;10.904;2023-05-07T03:50:07;12.83;;;6.33;;
22219;SDS011;11279;48.364;10.904;2023-05-07T03:51:08;10.23;;;5.70;;
22219;SDS011;11279;48.364;10.904;2023-05-07T03:52:08;9.33;;;6.13;;
22219;SDS011;11279;48.364;10.904;2023-05-07T03:53:08;10.63;;;5.60;;
22219;SDS011;11279;48.364;10.904;2023-05-07T03:54:09;12.80;;;6.07;;
22219;SDS011;11279;48.364;10.904;2023-05-07T03:55:10;10.93;;;6.23;;
22219;SDS011;11279;48.364;10.904;2023-05-07T03:56:10;10.00;;;6.20;;
22219;SDS011;11279;48.364;10.904;2023-05-07T03:57:10;9.27;;;5.67;;
22219;SDS011;11279;48.364;10.904;2023-05-07T03:58:11;9.27;;;6.07;;
22219;SDS011;11279;48.364;10.904;2023-05-07T03:59:12;9.53;;;5.70;;
22219;SDS011;11279;48.364;10.904;2023-05-07T04:00:13;9.05;;;5.90;;
22219;SDS011;11279;48.364;10.904;2023-05-07T04:01:14;11.40;;;6.70;;
22219;SDS011;11279;48.364;10.904;2023-05-07T04:02:14;9.40;;;6.07;;
22219;SDS011;11279;48.364;10.904;2023-05-07T04:03:15;11.67;;;6.73;;
22219;SDS011;11279;48.364;10.904;2023-05-07T04:04:15;11.60;;;6.20;;
22219;SDS011;11279;48.364;10.904;2023-05-07T04:05:16;7.43;;;5.57;;
22219;SDS011;11279;48.364;10.904;2023-05-07T04:06:16;8.53;;;5.67;;
22219;SDS011;11279;48.364;10.904;2023-05-07T04:07:17;10.73;;;5.87;;
22219;SDS011;11279;48.364;10.904;2023-05-07T04:08:18;8.80;;;5.47;;
22219;SDS011;11279;48.364;10.904;2023-05-07T04:09:18;12.50;;;6.07;;
22219;SDS011;11279;48.364;10.904;2023-05-07T04:10:18;10.30;;;5.97;;
22219;SDS011;11279;48.364;10.904;2023-05-07T04:11:19;10.63;;;6.77;;
22219;SDS011;11279;48.364;10.904;2023-05-07T04:12:20;9.70;;;6.35;;
22219;SDS011;11279;48.364;10.904;2023-05-07T04:13:20;11.47;;;6.47;;
22219;SDS011;11279;48.364;10.904;2023-05-07T04:14:21;10.67;;;6.67;;
22219;SDS011;11279;48.364;10.904;2023-05-07T04:15:23;10.57;;;6.43;;
22219;SDS011;11279;48.364;10.904;2023-05-07T04:16:23;11.07;;;6.35;;
22219;SDS011;11279;48.364;10.904;2023-05-07T04:17:24;9.97;;;6.07;;
22219;SDS011;11279;48.364;10.904;2023-05-07T04:18:24;9.60;;;6.20;;
22219;SDS011;11279;48.364;10.904;2023-05-07T04:19:25;8.17;;;5.80;;
22219;SDS011;11279;48.364;10.904;2023-05-07T04:20:25;9.83;;;6.67;;
22219;SDS011;11279;48.364;10.904;2023-05-07T04:21:25;10.07;;;6.33;;
22219;SDS011;11279;48.364;10.904;2023-05-07T04:22:26;12.60;;;6.97;;
22219;SDS011;11279;48.364;10.904;2023-05-07T04:23:27;11.07;;;6.37;;
22219;SDS011;11279;48.364;10.904;2023-05-07T04:24:27;10.73;;;6.33;;
22219;SDS011;11279;48.364;10.904;2023-05-07T04:25:27;8.83;;;6.20;;
22219;SDS011;11279;48.364;10.904;2023-05-07T04:26:28;11.43;;;5.90;;
22219;SDS011;11279;48.364;10.904;2023-05-07T04:27:29;10.20;;;6.17;;
22219;SDS011;11279;48.364;10.904;2023-05-07T04:28:29;11.67;;;7.03;;
22219;SDS011;11279;48.364;10.904;2023-05-07T04:29:30;10.73;;;5.97;;
22219;SDS011;11279;48.364;10.904;2023-05-07T04:30:30;10.10;;;6.10;;
22219;SDS011;11279;48.364;10.904;2023-05-07T04:31:31;11.80;;;6.37;;
22219;SDS011;11279;48.364;10.904;2023-05-07T04:32:31;10.83;;;6.63;;
22219;SDS011;11279;48.364;10.904;2023-05-07T04:33:32;9.77;;;6.60;;
22219;SDS011;11279;48.364;10.904;2023-05-07T04:34:33;10.07;;;6.10;;
22219;SDS011;11279;48.364;10.904;2023-05-07T04:35:33;9.73;;;6.60;;
22219;SDS011;11279;48.364;10.904;2023-05-07T04:36:34;9.35;;;6.65;;
22219;SDS011;11279;48.364;10.904;2023-05-07T04:37:35;8.53;;;6.13;;
22219;SDS011;11279;48.364;10.904;2023-05-07T04:38:35;13.70;;;6.93;;
22219;SDS011;11279;48.364;10.904;2023-05-07T04:39:36;13.77;;;6.97;;
22219;SDS011;11279;48.364;10.904;2023-05-07T04:40:37;9.93;;;6.32;;
22219;SDS011;11279;48.364;10.904;2023-05-07T04:41:38;12.20;;;6.55;;
22219;SDS011;11279;48.364;10.904;2023-05-07T04:42:39;8.77;;;6.00;;
22219;SDS011;11279;48.364;10.904;2023-05-07T04:43:39;10.67;;;6.93;;
22219;SDS011;11279;48.364;10.904;2023-05-07T04:44:40;14.40;;;6.63;;
22219;SDS011;11279;48.364;10.904;2023-05-07T04:45:40;9.90;;;5.97;;
22219;SDS011;11279;48.364;10.904;2023-05-07T04:46:41;12.93;;;5.60;;
22219;SDS011;11279;48.364;10.904;2023-05-07T04:47:41;10.87;;;6.67;;
22219;SDS011;11279;48.364;10.904;2023-05-07T04:48:42;8.00;;;6.03;;
22219;SDS011;11279;48.364;10.904;2023-05-07T04:49:42;10.73;;;6.27;;
22219;SDS011;11279;48.364;10.904;2023-05-07T04:50:43;8.90;;;5.63;;
22219;SDS011;11279;48.364;10.904;2023-05-07T04:51:43;11.90;;;6.03;;
22219;SDS011;11279;48.364;10.904;2023-05-07T04:52:44;10.33;;;6.30;;
22219;SDS011;11279;48.364;10.904;2023-05-07T04:53:45;10.68;;;5.85;;
22219;SDS011;11279;48.364;10.904;2023-05-07T04:54:45;10.10;;;6.10;;
22219;SDS011;11279;48.364;10.904;2023-05-07T04:55:46;14.37;;;6.37;;
22219;SDS011;11279;48.364;10.904;2023-05-07T04:56:46;12.20;;;5.97;;
22219;SDS011;11279;48.364;10.904;2023-05-07T04:57:46;8.20;;;5.77;;
22219;SDS011;11279;48.364;10.904;2023-05-07T04:58:47;9.23;;;5.97;;
22219;SDS011;11279;48.364;10.904;2023-05-07T04:59:47;10.50;;;6.43;;
22219;SDS011;11279;48.364;10.904;2023-05-07T05:00:48;10.17;;;5.33;;
22219;SDS011;11279;48.364;10.904;2023-05-07T05:01:48;8.77;;;5.73;;
22219;SDS011;11279;48.364;10.904;2023-05-07T05:02:49;7.27;;;4.93;;
22219;SDS011;11279;48.364;10.904;2023-05-07T05:03:49;10.97;;;5.87;;
22219;SDS011;11279;48.364;10.904;2023-05-07T05:04:50;6.47;;;4.93;;
22219;SDS011;11279;48.364;10.904;2023-05-07T05:05:50;10.40;;;6.17;;
22219;SDS011;11279;48.364;10.904;2023-05-07T05:06:52;8.95;;;5.35;;
22219;SDS011;11279;48.364;10.904;2023-05-07T05:07:52;7.30;;;5.13;;
22219;SDS011;11279;48.364;10.904;2023-05-07T05:08:53;7.63;;;5.33;;
22219;SDS011;11279;48.364;10.904;2023-05-07T05:09:53;8.37;;;5.80;;
22219;SDS011;11279;48.364;10.904;2023-05-07T05:10:54;10.47;;;5.80;;
22219;SDS011;11279;48.364;10.904;2023-05-07T05:11:54;6.40;;;5.03;;
22219;SDS011;11279;48.364;10.904;2023-05-07T05:12:55;8.87;;;5.67;;
22219;SDS011;11279;48.364;10.904;2023-05-07T05:13:55;8.70;;;5.53;;
22219;SDS011;11279;48.364;10.904;2023-05-07T05:14:55;11.67;;;5.47;;
22219;SDS011;11279;48.364;10.904;2023-05-07T05:15:56;8.37;;;5.10;;
22219;SDS011;11279;48.364;10.904;2023-05-07T05:16:56;8.13;;;5.10;;
22219;SDS011;11279;48.364;10.904;2023-05-07T05:17:57;9.20;;;5.43;;
22219;SDS011;11279;48.364;10.904;2023-05-07T05:18:57;6.77;;;5.00;;
22219;SDS011;11279;48.364;10.904;2023-05-07T05:19:57;8.20;;;5.20;;
22219;SDS011;11279;48.364;10.904;2023-05-07T05:20:58;8.90;;;4.83;;
22219;SDS011;11279;48.364;10.904;2023-05-07T05:21:58;9.23;;;5.17;;
22219;SDS011;11279;48.364;10.904;2023-05-07T05:23:01;6.93;;;5.18;;
22219;SDS011;11279;48.364;10.904;2023-05-07T05:24:01;8.27;;;5.10;;
22219;SDS011;11279;48.364;10.904;2023-05-07T05:25:01;7.40;;;5.20;;
22219;SDS011;11279;48.364;10.904;2023-05-07T05:26:02;7.33;;;4.90;;
22219;SDS011;11279;48.364;10.904;2023-05-07T05:27:03;8.63;;;5.10;;
22219;SDS011;11279;48.364;10.904;2023-05-07T05:28:05;8.77;;;5.10;;
22219;SDS011;11279;48.364;10.904;2023-05-07T05:29:06;7.20;;;5.00;;
22219;SDS011;11279;48.364;10.904;2023-05-07T05:30:07;7.68;;;5.03;;
22219;SDS011;11279;48.364;10.904;2023-05-07T05:31:08;9.17;;;5.67;;
22219;SDS011;11279;48.364;10.904;2023-05-07T05:32:09;6.70;;;4.93;;
22219;SDS011;11279;48.364;10.904;2023-05-07T05:33:10;8.30;;;5.63;;
22219;SDS011;11279;48.364;10.904;2023-05-07T05:34:10;9.67;;;5.10;;
22219;SDS011;11279;48.364;10.904;2023-05-07T05:35:10;9.43;;;5.30;;
22219;SDS011;11279;48.364;10.904;2023-05-07T05:36:11;9.13;;;4.80;;
22219;SDS011;11279;48.364;10.904;2023-05-07T05:37:13;9.40;;;5.40;;
22219;SDS011;11279;48.364;10.904;2023-05-07T05:38:13;8.80;;;4.97;;
22219;SDS011;11279;48.364;10.904;2023-05-07T05:39:14;9.90;;;4.97;;
22219;SDS011;11279;48.364;10.904;2023-05-07T05:40:14;8.97;;;4.83;;
22219;SDS011;11279;48.364;10.904;2023-05-07T05:41:14;7.83;;;5.60;;
22219;SDS011;11279;48.364;10.904;2023-05-07T05:42:15;10.57;;;6.53;;
22219;SDS011;11279;48.364;10.904;2023-05-07T05:43:15;10.67;;;5.93;;
22219;SDS011;11279;48.364;10.904;2023-05-07T05:44:16;10.60;;;6.33;;
22219;SDS011;11279;48.364;10.904;2023-05-07T05:45:16;7.07;;;5.53;;
22219;SDS011;11279;48.364;10.904;2023-05-07T05:46:17;9.63;;;5.93;;
22219;SDS011;11279;48.364;10.904;2023-05-07T05:47:18;9.53;;;5.47;;
22219;SDS011;11279;48.364;10.904;2023-05-07T05:48:18;7.93;;;5.50;;
22219;SDS011;11279;48.364;10.904;2023-05-07T05:49:18;7.70;;;4.87;;
22219;SDS011;11279;48.364;10.904;2023-05-07T05:50:19;10.63;;;6.20;;
22219;SDS011;11279;48.364;10.904;2023-05-07T05:51:20;9.03;;;5.23;;
22219;SDS011;11279;48.364;10.904;2023-05-07T05:52:21;9.00;;;5.40;;
22219;SDS011;11279;48.364;10.904;2023-05-07T05:53:23;7.47;;;5.18;;
22219;SDS011;11279;48.364;10.904;2023-05-07T05:54:24;9.17;;;5.43;;
22219;SDS011;11279;48.364;10.904;2023-05-07T05:55:24;10.70;;;6.07;;
22219;SDS011;11279;48.364;10.904;2023-05-07T05:56:25;7.87;;;4.93;;
22219;SDS011;11279;48.364;10.904;2023-05-07T05:57:25;8.97;;;5.60;;